Wetterstation Vordersexau
Wetterdaten: Woche 29.09.14 - 05.10.14 (KW40)
Datum Zeit Temp. A. Feuchte A. Luftdruck Regen Wind Richtung Taupunkt Windchill Windben
29.09.2014 00:00 12,6 C 85 % 995,6 hPa 0,0 l/m 0,0 km/h O-NO 10,1 C 12,6 C 0,0 km/h
29.09.2014 01:00 12,1 C 85 % 995,7 hPa 0,0 l/m 0,0 km/h O-SO 9,7 C 12,1 C 0,0 km/h
29.09.2014 02:00 11,6 C 86 % 995,3 hPa 0,0 l/m 0,0 km/h O-SO 9,3 C 11,6 C 0,0 km/h
29.09.2014 03:00 11,9 C 85 % 995,1 hPa 0,0 l/m 0,0 km/h SO 9,5 C 11,9 C 0,0 km/h
29.09.2014 04:00 11,9 C 85 % 995,1 hPa 0,0 l/m 3,2 km/h O-NO 9,5 C 11,9 C 3,2 km/h
29.09.2014 05:00 11,1 C 85 % 995,2 hPa 0,0 l/m 0,0 km/h O-NO 8,7 C 11,1 C 0,0 km/h
29.09.2014 06:00 10,6 C 85 % 994,8 hPa 0,0 l/m 0,0 km/h O-NO 8,2 C 10,6 C 0,0 km/h
29.09.2014 07:00 10,2 C 85 % 995,5 hPa 0,0 l/m 0,0 km/h N-NW 7,8 C 10,2 C 0,0 km/h
29.09.2014 08:00 13,1 C 80 % 995,7 hPa 0,0 l/m 0,0 km/h SO 9,7 C 13,1 C 0,0 km/h
29.09.2014 09:00 19,6 C 80 % 995,8 hPa 0,0 l/m 0,0 km/h W 16,1 C 19,6 C 0,0 km/h
29.09.2014 10:00 26,8 C 59 % 995,9 hPa 0,0 l/m 0,0 km/h S-SW 18,1 C 26,8 C 0,0 km/h
29.09.2014 11:00 30,5 C 50 % 995,6 hPa 0,0 l/m 0,0 km/h S-SW 18,9 C 30,5 C 0,0 km/h
29.09.2014 12:00 31,3 C 44 % 995,1 hPa 0,0 l/m 0,0 km/h W-NW 17,6 C 31,3 C 0,0 km/h
29.09.2014 13:00 29,4 C 47 % 994,7 hPa 0,0 l/m 0,0 km/h W 16,9 C 29,4 C 0,0 km/h
29.09.2014 14:00 28,9 C 44 % 994,5 hPa 0,0 l/m 0,0 km/h W-SW 15,4 C 28,9 C 0,0 km/h
29.09.2014 15:00 29,4 C 43 % 994,3 hPa 0,0 l/m 0,0 km/h W 15,5 C 29,4 C 0,0 km/h
29.09.2014 16:00 25,6 C 53 % 994,4 hPa 0,0 l/m 0,0 km/h W-NW 15,3 C 25,6 C 0,0 km/h
29.09.2014 17:00 22,1 C 65 % 994,5 hPa 0,0 l/m 0,0 km/h W-NW 15,2 C 22,1 C 0,0 km/h
29.09.2014 18:00 19,9 C 71 % 994,7 hPa 0,0 l/m 0,0 km/h W-NW 14,5 C 19,9 C 0,0 km/h
29.09.2014 19:00 18,3 C 77 % 995,1 hPa 0,0 l/m 0,0 km/h NW 14,2 C 18,3 C 0,0 km/h
29.09.2014 20:00 17,6 C 80 % 995,3 hPa 0,0 l/m 0,0 km/h NW 14,1 C 17,6 C 0,0 km/h
29.09.2014 21:00 17,3 C 80 % 996,0 hPa 0,0 l/m 0,0 km/h SO 13,8 C 17,3 C 0,0 km/h
29.09.2014 22:00 17,0 C 82 % 995,5 hPa 0,0 l/m 0,0 km/h SO 13,9 C 17,0 C 0,0 km/h
29.09.2014 23:00 16,6 C 81 % 995,7 hPa 0,0 l/m 0,0 km/h O 13,3 C 16,6 C 0,0 km/h
30.09.2014 00:00 15,9 C 82 % 995,7 hPa 0,0 l/m 0,0 km/h O 12,8 C 15,9 C 0,0 km/h
30.09.2014 01:00 15,5 C 83 % 995,7 hPa 0,0 l/m 0,0 km/h O 12,6 C 15,5 C 0,0 km/h
30.09.2014 02:00 15,4 C 84 % 995,3 hPa 0,0 l/m 0,0 km/h SO 12,7 C 15,4 C 0,0 km/h
30.09.2014 03:00 15,6 C 84 % 995,5 hPa 0,0 l/m 0,0 km/h NO 12,9 C 15,6 C 0,0 km/h
30.09.2014 04:00 15,8 C 84 % 995,3 hPa 0,0 l/m 0,0 km/h N-NO 13,1 C 15,8 C 0,0 km/h
30.09.2014 05:00 15,3 C 84 % 995,6 hPa 0,0 l/m 0,0 km/h N-NO 12,6 C 15,3 C 0,0 km/h
30.09.2014 06:00 15,0 C 85 % 995,7 hPa 0,0 l/m 0,0 km/h N-NO 12,5 C 15,0 C 0,0 km/h
30.09.2014 07:00 14,8 C 85 % 995,7 hPa 0,0 l/m 0,0 km/h O-NO 12,3 C 14,8 C 0,0 km/h
30.09.2014 08:00 15,6 C 85 % 995,9 hPa 0,0 l/m 0,0 km/h O-NO 13,1 C 15,6 C 0,0 km/h
30.09.2014 09:00 17,2 C 85 % 996,2 hPa 0,2 l/m 0,0 km/h O-NO 14,7 C 17,2 C 0,0 km/h
30.09.2014 10:00 19,1 C 84 % 996,4 hPa 0,0 l/m 0,0 km/h O-SO 16,3 C 19,1 C 0,0 km/h
30.09.2014 11:00 20,4 C 80 % 996,6 hPa 0,0 l/m 0,0 km/h N-NW 16,8 C 20,4 C 0,0 km/h
30.09.2014 12:00 22,8 C 71 % 996,7 hPa 0,0 l/m 0,0 km/h W 17,3 C 22,8 C 0,0 km/h
30.09.2014 13:00 22,0 C 72 % 996,5 hPa 0,0 l/m 0,0 km/h W 16,7 C 22,0 C 0,0 km/h
30.09.2014 14:00 23,9 C 65 % 996,2 hPa 0,0 l/m 0,0 km/h W 16,9 C 23,9 C 0,0 km/h
30.09.2014 15:00 21,8 C 70 % 996,1 hPa 0,0 l/m 0,0 km/h N 16,1 C 21,8 C 0,0 km/h
30.09.2014 16:00 23,2 C 66 % 996,1 hPa 0,0 l/m 0,0 km/h NW 16,5 C 23,2 C 0,0 km/h
30.09.2014 17:00 20,8 C 74 % 995,9 hPa 0,0 l/m 0,0 km/h NW 16,0 C 20,8 C 0,0 km/h
30.09.2014 18:00 19,9 C 76 % 995,7 hPa 0,0 l/m 31,1 km/h NW 15,5 C 14,4 C 17,3 km/h
30.09.2014 19:00 17,0 C 82 % 996,1 hPa 0,0 l/m 0,0 km/h O-SO 13,9 C 17,0 C 0,0 km/h
30.09.2014 20:00 15,7 C 84 % 996,3 hPa 0,0 l/m 0,0 km/h NO 13,0 C 15,7 C 0,0 km/h
30.09.2014 21:00 14,4 C 85 % 996,5 hPa 0,0 l/m 0,0 km/h O-NO 11,9 C 14,4 C 0,0 km/h
30.09.2014 22:00 14,5 C 85 % 996,7 hPa 0,0 l/m 0,0 km/h SO 12,0 C 14,5 C 0,0 km/h
30.09.2014 23:00 14,1 C 85 % 996,6 hPa 0,0 l/m 0,0 km/h SO 11,6 C 14,1 C 0,0 km/h
01.10.2014 00:00 13,4 C 85 % 996,5 hPa 0,0 l/m 0,0 km/h O-NO 10,9 C 13,4 C 0,0 km/h
01.10.2014 01:00 13,2 C 84 % 996,5 hPa 0,0 l/m 0,0 km/h O-NO 10,6 C 13,2 C 0,0 km/h
01.10.2014 02:00 13,2 C 83 % 996,5 hPa 0,0 l/m 0,0 km/h O-NO 10,4 C 13,2 C 0,0 km/h
01.10.2014 03:00 12,3 C 83 % 996,5 hPa 0,0 l/m 0,0 km/h O-NO 9,5 C 12,3 C 0,0 km/h
01.10.2014 04:00 11,6 C 83 % 996,4 hPa 0,0 l/m 0,0 km/h O-NO 8,8 C 11,6 C 0,0 km/h
01.10.2014 05:00 11,2 C 83 % 996,6 hPa 0,0 l/m 0,0 km/h O-NO 8,4 C 11,2 C 0,0 km/h
01.10.2014 06:00 11,8 C 82 % 996,6 hPa 0,0 l/m 0,0 km/h O-NO 8,8 C 11,8 C 0,0 km/h
01.10.2014 07:00 11,9 C 82 % 996,7 hPa 0,0 l/m 0,0 km/h O-NO 8,9 C 11,9 C 0,0 km/h
01.10.2014 08:00 12,4 C 81 % 997,0 hPa 0,0 l/m 0,0 km/h N 9,2 C 12,4 C 0,0 km/h
01.10.2014 09:00 16,1 C 77 % 997,4 hPa 0,0 l/m 0,0 km/h W 12,1 C 16,1 C 0,0 km/h
01.10.2014 10:00 22,4 C 75 % 997,5 hPa 0,0 l/m 0,0 km/h W 17,7 C 22,4 C 0,0 km/h
01.10.2014 11:00 25,5 C 63 % 997,4 hPa 0,0 l/m 0,0 km/h W 17,9 C 25,5 C 0,0 km/h
01.10.2014 12:00 25,5 C 62 % 997,0 hPa 0,0 l/m 0,0 km/h W 17,7 C 25,5 C 0,0 km/h
01.10.2014 13:00 26,8 C 58 % 996,7 hPa 0,0 l/m 11,7 km/h W-NW 17,8 C 25,9 C 6,5 km/h
01.10.2014 14:00 25,1 C 56 % 996,3 hPa 0,0 l/m 0,0 km/h N-NO 15,7 C 25,1 C 0,0 km/h
01.10.2014 15:00 23,2 C 62 % 996,0 hPa 0,0 l/m 0,0 km/h N 15,5 C 23,2 C 0,0 km/h
01.10.2014 16:00 28,3 C 48 % 995,8 hPa 0,0 l/m 0,0 km/h N-NO 16,2 C 28,3 C 0,0 km/h
01.10.2014 17:00 28,6 C 47 % 996,0 hPa 0,0 l/m 0,0 km/h N 16,2 C 28,6 C 0,0 km/h
01.10.2014 18:00 21,9 C 59 % 996,3 hPa 0,0 l/m 0,0 km/h O-NO 13,5 C 21,9 C 0,0 km/h
01.10.2014 19:00 15,9 C 76 % 996,9 hPa 0,0 l/m 0,0 km/h O-NO 11,7 C 15,9 C 0,0 km/h
01.10.2014 20:00 14,8 C 80 % 997,4 hPa 0,0 l/m 0,0 km/h O-NO 11,4 C 14,8 C 0,0 km/h
01.10.2014 21:00 13,4 C 84 % 997,8 hPa 0,0 l/m 0,0 km/h O 10,8 C 13,4 C 0,0 km/h
01.10.2014 22:00 12,7 C 85 % 998,1 hPa 0,0 l/m 0,0 km/h O-NO 10,2 C 12,7 C 0,0 km/h
01.10.2014 23:00 12,3 C 85 % 997,9 hPa 0,0 l/m 0,0 km/h O-SO 9,9 C 12,3 C 0,0 km/h
02.10.2014 00:00 11,5 C 85 % 998,2 hPa 0,0 l/m 0,0 km/h O 9,1 C 11,5 C 0,0 km/h
02.10.2014 01:00 11,1 C 86 % 998,0 hPa 0,0 l/m 0,0 km/h N-NO 8,8 C 11,1 C 0,0 km/h
02.10.2014 02:00 10,8 C 85 % 998,0 hPa 0,0 l/m 0,0 km/h N-NO 8,4 C 10,8 C 0,0 km/h
02.10.2014 03:00 10,5 C 85 % 997,9 hPa 0,0 l/m 0,0 km/h N-NO 8,1 C 10,5 C 0,0 km/h
02.10.2014 04:00 10,1 C 85 % 997,9 hPa 0,0 l/m 0,0 km/h N-NO 7,7 C 10,1 C 0,0 km/h
02.10.2014 05:00 9,6 C 85 % 997,9 hPa 0,0 l/m 0,0 km/h N-NO 7,2 C 9,6 C 0,0 km/h
02.10.2014 06:00 9,1 C 85 % 998,0 hPa 0,0 l/m 0,0 km/h N-NO 6,7 C 9,1 C 0,0 km/h
02.10.2014 07:00 9,5 C 84 % 998,4 hPa 0,0 l/m 0,0 km/h N 6,9 C 9,5 C 0,0 km/h
02.10.2014 08:00 11,1 C 83 % 998,5 hPa 0,0 l/m 0,0 km/h N 8,3 C 11,1 C 0,0 km/h
02.10.2014 09:00 12,9 C 82 % 998,8 hPa 0,0 l/m 0,0 km/h N-NW 9,9 C 12,9 C 0,0 km/h
02.10.2014 10:00 15,9 C 86 % 998,6 hPa 0,0 l/m 0,0 km/h W 13,6 C 15,9 C 0,0 km/h
02.10.2014 11:00 16,3 C 84 % 998,5 hPa 0,0 l/m 0,0 km/h W-SW 13,6 C 16,3 C 0,0 km/h
02.10.2014 12:00 16,6 C 83 % 998,3 hPa 0,0 l/m 0,0 km/h W-SW 13,7 C 16,6 C 0,0 km/h
02.10.2014 13:00 18,4 C 80 % 997,6 hPa 0,0 l/m 0,0 km/h S-SO 14,9 C 18,4 C 0,0 km/h
02.10.2014 14:00 22,8 C 70 % 996,9 hPa 0,0 l/m 0,0 km/h W-SW 17,0 C 22,8 C 0,0 km/h
02.10.2014 15:00 28,3 C 56 % 996,6 hPa 0,0 l/m 0,0 km/h S-SW 18,7 C 28,3 C 0,0 km/h
02.10.2014 16:00 30,7 C 50 % 995,6 hPa 0,0 l/m 0,0 km/h S 19,1 C 30,7 C 0,0 km/h
02.10.2014 17:00 30,8 C 48 % 995,4 hPa 0,0 l/m 0,0 km/h N-NO 18,5 C 30,8 C 0,0 km/h
02.10.2014 18:00 22,4 C 59 % 995,8 hPa 0,0 l/m 1,3 km/h O-SO 14,0 C 22,4 C 0,7 km/h
02.10.2014 19:00 15,2 C 77 % 996,2 hPa 0,0 l/m 0,0 km/h O-SO 11,2 C 15,2 C 0,0 km/h
02.10.2014 20:00 13,2 C 81 % 996,3 hPa 0,0 l/m 0,0 km/h S-SO 10,0 C 13,2 C 0,0 km/h
02.10.2014 21:00 13,3 C 85 % 996,4 hPa 0,0 l/m 0,0 km/h N-NO 10,8 C 13,3 C 0,0 km/h
02.10.2014 22:00 11,8 C 85 % 996,6 hPa 0,0 l/m 0,0 km/h O-SO 9,4 C 11,8 C 0,0 km/h
02.10.2014 23:00 10,5 C 85 % 996,5 hPa 0,0 l/m 0,0 km/h O-SO 8,1 C 10,5 C 0,0 km/h
03.10.2014 00:00 10,0 C 86 % 996,0 hPa 0,0 l/m 0,0 km/h O-NO 7,8 C 10,0 C 0,0 km/h
03.10.2014 01:00 10,1 C 85 % 996,0 hPa 0,0 l/m 0,0 km/h NO 7,7 C 10,1 C 0,0 km/h
03.10.2014 02:00 9,2 C 86 % 995,6 hPa 0,0 l/m 0,0 km/h O-NO 7,0 C 9,2 C 0,0 km/h
03.10.2014 03:00 8,8 C 85 % 995,2 hPa 0,0 l/m 0,0 km/h O-NO 6,4 C 8,8 C 0,0 km/h
03.10.2014 04:00 7,4 C 86 % 995,3 hPa 0,0 l/m 0,0 km/h O-NO 5,2 C 7,4 C 0,0 km/h
03.10.2014 05:00 7,9 C 85 % 995,6 hPa 0,0 l/m 0,0 km/h NO 5,5 C 7,9 C 0,0 km/h
03.10.2014 06:00 7,9 C 84 % 995,5 hPa 0,0 l/m 0,0 km/h NO 5,4 C 7,9 C 0,0 km/h
03.10.2014 07:00 8,4 C 83 % 995,5 hPa 0,0 l/m 0,0 km/h NO 5,7 C 8,4 C 0,0 km/h
03.10.2014 08:00 10,1 C 81 % 995,8 hPa 0,0 l/m 0,0 km/h NO 7,0 C 10,1 C 0,0 km/h
03.10.2014 09:00 14,9 C 79 % 995,9 hPa 0,0 l/m 0,0 km/h W 11,3 C 14,9 C 0,0 km/h
03.10.2014 10:00 22,4 C 69 % 995,7 hPa 0,0 l/m 0,0 km/h W 16,4 C 22,4 C 0,0 km/h
03.10.2014 11:00 24,6 C 59 % 995,4 hPa 0,0 l/m 0,0 km/h W-NW 16,0 C 24,6 C 0,0 km/h
03.10.2014 12:00 23,6 C 60 % 994,8 hPa 0,0 l/m 0,0 km/h W 15,4 C 23,6 C 0,0 km/h
03.10.2014 13:00 24,1 C 58 % 994,1 hPa 0,0 l/m 0,0 km/h N 15,3 C 24,1 C 0,0 km/h
03.10.2014 14:00 25,2 C 56 % 993,7 hPa 0,0 l/m 0,0 km/h W 15,8 C 25,2 C 0,0 km/h
03.10.2014 15:00 26,6 C 53 % 993,2 hPa 0,0 l/m 0,0 km/h W 16,2 C 26,6 C 0,0 km/h
03.10.2014 16:00 26,3 C 52 % 992,5 hPa 0,0 l/m 0,0 km/h W 15,6 C 26,3 C 0,0 km/h
03.10.2014 17:00 24,9 C 55 % 992,3 hPa 0,0 l/m 0,0 km/h W 15,2 C 24,9 C 0,0 km/h
03.10.2014 18:00 18,4 C 70 % 992,3 hPa 0,0 l/m 0,0 km/h S-SW 12,8 C 18,4 C 0,0 km/h
03.10.2014 19:00 14,4 C 80 % 992,1 hPa 0,0 l/m 0,0 km/h SO 11,0 C 14,4 C 0,0 km/h
03.10.2014 20:00 12,4 C 83 % 992,0 hPa 0,0 l/m 0,0 km/h SO 9,6 C 12,4 C 0,0 km/h
03.10.2014 21:00 11,6 C 85 % 992,3 hPa 0,0 l/m 0,0 km/h O-SO 9,2 C 11,6 C 0,0 km/h
03.10.2014 22:00 10,1 C 85 % 991,8 hPa 0,0 l/m 0,0 km/h O 7,7 C 10,1 C 0,0 km/h
03.10.2014 23:00 9,6 C 86 % 991,5 hPa 0,0 l/m 0,0 km/h O-NO 7,4 C 9,6 C 0,0 km/h
04.10.2014 00:00 8,9 C 86 % 991,2 hPa 0,0 l/m 0,0 km/h O-NO 6,7 C 8,9 C 0,0 km/h
04.10.2014 01:00 8,5 C 86 % 990,8 hPa 0,0 l/m 0,0 km/h O-SO 6,3 C 8,5 C 0,0 km/h
04.10.2014 02:00 7,8 C 86 % 990,6 hPa 0,0 l/m 0,0 km/h NO 5,6 C 7,8 C 0,0 km/h
04.10.2014 03:00 7,1 C 86 % 990,1 hPa 0,0 l/m 0,0 km/h NO 4,9 C 7,1 C 0,0 km/h
04.10.2014 04:00 7,4 C 85 % 989,5 hPa 0,0 l/m 0,0 km/h O-SO 5,0 C 7,4 C 0,0 km/h
04.10.2014 05:00 7,0 C 85 % 989,3 hPa 0,0 l/m 0,0 km/h N-NO 4,7 C 7,0 C 0,0 km/h
04.10.2014 06:00 6,4 C 84 % 989,1 hPa 0,0 l/m 0,0 km/h N-NO 3,9 C 6,4 C 0,0 km/h
04.10.2014 07:00 6,3 C 84 % 989,0 hPa 0,0 l/m 0,0 km/h N-NO 3,8 C 6,3 C 0,0 km/h
04.10.2014 08:00 8,9 C 79 % 988,9 hPa 0,0 l/m 0,0 km/h N-NO 5,5 C 8,9 C 0,0 km/h
04.10.2014 09:00 14,7 C 83 % 988,8 hPa 0,0 l/m 0,0 km/h W-NW 11,8 C 14,7 C 0,0 km/h
04.10.2014 10:00 21,2 C 67 % 988,8 hPa 0,0 l/m 0,0 km/h S 14,8 C 21,2 C 0,0 km/h
04.10.2014 11:00 24,5 C 57 % 988,5 hPa 0,0 l/m 0,0 km/h W-NW 15,4 C 24,5 C 0,0 km/h
04.10.2014 12:00 24,8 C 54 % 987,8 hPa 0,0 l/m 0,0 km/h SW 14,8 C 24,8 C 0,0 km/h
04.10.2014 13:00 25,1 C 54 % 987,2 hPa 0,0 l/m 0,0 km/h W-SW 15,1 C 25,1 C 0,0 km/h
04.10.2014 14:00 25,2 C 55 % 986,5 hPa 0,0 l/m 0,0 km/h W 15,5 C 25,2 C 0,0 km/h
04.10.2014 15:00 26,5 C 49 % 986,0 hPa 0,0 l/m 0,0 km/h W 14,9 C 26,5 C 0,0 km/h
04.10.2014 16:00 26,9 C 48 % 985,9 hPa 0,0 l/m 0,0 km/h SW 14,9 C 26,9 C 0,0 km/h
04.10.2014 17:00 26,9 C 48 % 985,9 hPa 0,0 l/m 0,0 km/h S 14,9 C 26,9 C 0,0 km/h
04.10.2014 18:00 19,6 C 59 % 986,0 hPa 0,0 l/m 0,0 km/h S 11,4 C 19,6 C 0,0 km/h
04.10.2014 19:00 14,1 C 76 % 986,2 hPa 0,0 l/m 0,0 km/h S-SO 9,9 C 14,1 C 0,0 km/h
04.10.2014 20:00 12,6 C 81 % 986,4 hPa 0,0 l/m 0,0 km/h SO 9,4 C 12,6 C 0,0 km/h
04.10.2014 21:00 11,8 C 83 % 986,6 hPa 0,0 l/m 0,0 km/h SO 9,0 C 11,8 C 0,0 km/h
04.10.2014 22:00 11,4 C 85 % 986,6 hPa 0,0 l/m 0,0 km/h O-SO 9,0 C 11,4 C 0,0 km/h
04.10.2014 23:00 10,6 C 85 % 986,7 hPa 0,0 l/m 0,0 km/h SO 8,2 C 10,6 C 0,0 km/h
05.10.2014 00:00 10,1 C 85 % 986,6 hPa 0,0 l/m 0,0 km/h O-NO 7,7 C 10,1 C 0,0 km/h
05.10.2014 01:00 10,1 C 85 % 986,6 hPa 0,0 l/m 0,0 km/h SO 7,7 C 10,1 C 0,0 km/h
05.10.2014 02:00 10,5 C 85 % 986,6 hPa 0,0 l/m 0,0 km/h SO 8,1 C 10,5 C 0,0 km/h
05.10.2014 03:00 11,4 C 85 % 986,7 hPa 0,0 l/m 0,0 km/h O-NO 9,0 C 11,4 C 0,0 km/h
05.10.2014 04:00 11,9 C 85 % 986,2 hPa 0,0 l/m 0,0 km/h SO 9,5 C 11,9 C 0,0 km/h
05.10.2014 05:00 10,5 C 86 % 986,1 hPa 0,0 l/m 0,0 km/h O-SO 8,3 C 10,5 C 0,0 km/h
05.10.2014 06:00 10,2 C 86 % 986,0 hPa 0,0 l/m 0,0 km/h O-SO 8,0 C 10,2 C 0,0 km/h
05.10.2014 07:00 10,1 C 85 % 986,0 hPa 0,0 l/m 0,0 km/h O-SO 7,7 C 10,1 C 0,0 km/h
05.10.2014 08:00 11,8 C 84 % 986,1 hPa 0,0 l/m 0,0 km/h N-NW 9,2 C 11,8 C 0,0 km/h
05.10.2014 09:00 17,6 C 82 % 986,4 hPa 0,0 l/m 0,0 km/h W-NW 14,5 C 17,6 C 0,0 km/h
05.10.2014 10:00 21,1 C 70 % 986,5 hPa 0,0 l/m 0,0 km/h W 15,4 C 21,1 C 0,0 km/h
05.10.2014 11:00 23,9 C 61 % 986,1 hPa 0,0 l/m 0,0 km/h W 15,9 C 23,9 C 0,0 km/h
05.10.2014 12:00 23,5 C 61 % 985,5 hPa 0,0 l/m 13,6 km/h W-NW 15,5 C 21,7 C 7,6 km/h
05.10.2014 13:00 21,8 C 66 % 985,1 hPa 0,0 l/m 0,0 km/h W 15,2 C 21,8 C 0,0 km/h
05.10.2014 14:00 21,9 C 66 % 984,3 hPa 0,0 l/m 0,0 km/h W 15,3 C 21,9 C 0,0 km/h
05.10.2014 15:00 21,8 C 66 % 984,2 hPa 0,0 l/m 0,0 km/h W-NW 15,2 C 21,8 C 0,0 km/h
05.10.2014 16:00 22,6 C 65 % 984,3 hPa 0,0 l/m 3,9 km/h W-NW 15,7 C 22,6 C 2,2 km/h
05.10.2014 17:00 18,6 C 73 % 984,1 hPa 0,0 l/m 0,0 km/h W 13,7 C 18,6 C 0,0 km/h
05.10.2014 18:00 16,4 C 80 % 984,6 hPa 0,0 l/m 0,0 km/h W 12,9 C 16,4 C 0,0 km/h
05.10.2014 19:00 15,1 C 83 % 985,1 hPa 0,0 l/m 7,8 km/h S-SW 12,2 C 14,3 C 4,3 km/h
05.10.2014 20:00 14,3 C 85 % 985,3 hPa 0,2 l/m 0,0 km/h W-NW 11,8 C 14,3 C 0,0 km/h
05.10.2014 21:00 13,8 C 85 % 985,4 hPa 0,0 l/m 0,0 km/h W 11,3 C 13,8 C 0,0 km/h
05.10.2014 22:00 13,3 C 85 % 985,9 hPa 0,0 l/m 0,0 km/h S-SW 10,8 C 13,3 C 0,0 km/h
05.10.2014 23:00 13,0 C 85 % 985,8 hPa 0,0 l/m 0,0 km/h S-SW 10,5 C 13,0 C 0,0 km/h
Min-Datum _ 04.10.14 29.09.14 05.10.14 - 29.09.14 - 04.10.14 04.10.14 29.09.14
_ Min-Zeit 07:53 15:53 17:53 - 00:53 - 07:53 07:53 00:53
Minimum _ 6,3 C 43 % 984,1 hPa - 0,0 km/h - 3,8 C 6,3 C 0,0 km/h
Max-Datum _ 29.09.14 29.09.14 02.10.14 30.09.14 30.09.14 - 02.10.14 29.09.14 30.09.14
_ Max-Zeit 12:53 02:53 09:53 09:53 18:53 - 16:53 12:53 18:53
Maximum _ 31,3 C 86 % 998,8 hPa 0,2 l/m 31,1 km/h
NW
- 19,1 C 31,3 C 17,3 km/h
NW
Durchschnitt _ 16,6 C 76 % 993,3 hPa #0,4 l/m 0,4 km/h O-NO 11,9 C 16,5 C 0,2 km/h
www.sexauwetter.de